Time;durP1;ratioP1;P1;durP2;ratioP2;P2;SDS_P1;SDS_P2;PMS_P1;PMS_P2;Temp;Humidity;BMP_temperature;BMP_pressure;BME280_temperature;BME280_humidity;BME280_pressure;Samples;Min_cycle;Max_cycle;Signal;HPM_P1;HPM_P2
2023/09/28 00:02:50;;;;;;;0.80;0.60;;;;;;;16.37;100.00;100715.72;5048055;28;20075;-87
2023/09/28 00:05:16;;;;;;;0.98;0.70;;;;;;;17.49;100.00;100908.84;5036164;28;20072;-86
2023/09/28 00:07:43;;;;;;;1.00;0.40;;;;;;;16.93;100.00;100805.66;5029119;28;20416;-86
2023/09/28 00:10:11;;;;;;;1.27;1.00;;;;;;;16.79;100.00;100792.69;5047235;28;20074;-87
2023/09/28 00:12:39;;;;;;;0.63;0.50;;;;;;;17.33;100.00;100886.19;5029334;28;20040;-85
2023/09/28 00:15:05;;;;;;;2.78;1.20;;;;;;;17.47;100.00;100910.66;5028717;28;20039;-85
2023/09/28 00:17:32;;;;;;;0.63;0.63;;;;;;;17.55;99.58;100899.88;5047421;28;20036;-85
2023/09/28 00:19:58;;;;;;;2.45;1.05;;;;;;;16.90;100.00;100810.13;5046682;28;20045;-83
2023/09/28 00:22:23;;;;;;;1.25;1.15;;;;;;;16.82;99.96;100787.31;5047163;28;20071;-86
2023/09/28 00:24:49;;;;;;;1.23;1.15;;;;;;;17.11;99.63;100859.22;5047569;28;20048;-85
2023/09/28 00:27:15;;;;;;;1.40;1.02;;;;;;;16.75;99.74;100787.44;5047523;28;20037;-87
2023/09/28 00:29:40;;;;;;;1.15;0.80;;;;;;;16.82;99.46;100799.69;5048185;28;20416;-86
2023/09/28 00:32:06;;;;;;;0.30;0.30;;;;;;;16.71;98.47;100770.72;5047712;28;20044;-85
2023/09/28 00:34:32;;;;;;;0.90;0.80;;;;;;;17.20;98.73;100864.34;5046817;28;20090;-87
2023/09/28 00:36:58;;;;;;;0.68;0.52;;;;;;;17.36;98.96;100900.25;5047252;28;20049;-87
2023/09/28 00:39:23;;;;;;;0.85;0.70;;;;;;;17.37;98.40;100896.72;5066558;28;20090;-86
2023/09/28 00:41:49;;;;;;;1.02;0.80;;;;;;;17.21;97.86;100877.56;5067825;28;20047;-86
2023/09/28 00:44:15;;;;;;;0.88;0.77;;;;;;;16.68;98.28;100789.31;5066995;28;20052;-87
2023/09/28 00:46:42;;;;;;;1.90;1.15;;;;;;;17.10;98.60;100858.34;5067145;28;20048;-87
2023/09/28 00:49:12;;;;;;;0.73;0.45;;;;;;;17.20;98.61;100886.41;5065669;28;20093;-85
2023/09/28 00:51:39;;;;;;;1.48;0.85;;;;;;;16.72;98.97;100792.81;5049055;28;20037;-84
2023/09/28 00:54:11;;;;;;;2.63;1.77;;;;;;;17.24;98.99;100884.59;5047114;28;20075;-85
2023/09/28 00:56:37;;;;;;;2.10;1.60;;;;;;;16.88;98.98;100829.59;5050460;28;20028;-86
2023/09/28 00:59:02;;;;;;;9.95;1.65;;;;;;;16.88;98.48;100821.66;5046586;28;20394;-87
2023/09/28 01:01:30;;;;;;;0.63;0.45;;;;;;;17.24;99.51;100911.13;5046872;28;20115;-86
2023/09/28 01:04:00;;;;;;;10.98;1.17;;;;;;;16.75;98.63;100800.69;5047658;28;20073;-86
2023/09/28 01:06:26;;;;;;;0.80;0.60;;;;;;;17.11;100.00;100896.34;5044467;28;20062;-86
2023/09/28 01:08:54;;;;;;;0.93;0.75;;;;;;;16.63;99.25;100788.53;5032747;28;20839;-86
2023/09/28 01:11:20;;;;;;;0.70;0.68;;;;;;;17.26;99.91;100917.28;5029350;28;20131;-85
2023/09/28 01:13:46;;;;;;;0.35;0.35;;;;;;;17.11;98.88;100867.16;5046850;28;20897;-85
2023/09/28 01:16:13;;;;;;;0.60;0.60;;;;;;;17.24;99.63;100909.34;5046598;28;20470;-84
2023/09/28 01:18:38;;;;;;;1.30;1.20;;;;;;;17.07;100.00;100900.84;5039085;28;20044;-85
2023/09/28 01:21:10;;;;;;;0.30;0.30;;;;;;;16.91;100.00;100860.47;5052704;28;20025;-85
2023/09/28 01:23:35;;;;;;;1.35;1.08;;;;;;;16.90;98.80;100853.41;5067591;28;20087;-85
2023/09/28 01:26:01;;;;;;;1.30;1.15;;;;;;;16.70;98.78;100819.31;5054058;28;20378;-85
2023/09/28 01:28:27;;;;;;;3.08;1.73;;;;;;;16.35;99.02;100761.69;5028771;28;20146;-83
2023/09/28 01:30:53;;;;;;;0.43;0.43;;;;;;;16.85;99.21;100845.56;5047391;28;20030;-87
2023/09/28 01:33:18;;;;;;;1.45;1.35;;;;;;;16.54;97.64;100768.38;5028370;28;20056;-87
2023/09/28 01:35:43;;;;;;;0.38;0.38;;;;;;;16.86;97.55;100823.47;5047674;28;20090;-84
2023/09/28 01:38:45;;;;;;;0.47;0.40;;;;;;;17.29;98.23;100906.59;5066566;28;20117;-84
2023/09/28 01:41:11;;;;;;;1.65;1.55;;;;;;;17.20;98.25;100890.84;5044866;28;20415;-86
2023/09/28 01:43:37;;;;;;;0.45;0.35;;;;;;;17.13;98.33;100886.56;5046688;28;20049;-86
2023/09/28 01:46:02;;;;;;;2.08;0.95;;;;;;;17.12;98.36;100874.25;5045689;28;20044;-87
2023/09/28 01:48:28;;;;;;;2.10;1.05;;;;;;;16.95;98.78;100850.69;5033141;28;20124;-86
2023/09/28 01:50:53;;;;;;;1.60;0.93;;;;;;;16.64;98.56;100793.78;5055768;28;20064;-87
2023/09/28 01:53:19;;;;;;;1.00;0.93;;;;;;;17.05;98.17;100871.69;5049672;28;20060;-86
2023/09/28 01:55:47;;;;;;;3.50;1.17;;;;;;;16.76;97.92;100813.03;5032294;28;20057;-85
2023/09/28 01:58:12;;;;;;;1.13;1.05;;;;;;;16.48;98.68;100776.44;5085289;28;20537;-85
2023/09/28 02:00:38;;;;;;;2.85;1.85;;;;;;;16.86;99.26;100843.81;5070005;28;20044;-85
2023/09/28 02:03:05;;;;;;;1.48;1.23;;;;;;;16.69;99.39;100838.75;5051426;28;20032;-84
2023/09/28 02:05:33;;;;;;;0.40;0.40;;;;;;;16.80;99.88;100842.13;5069773;28;20038;-87
2023/09/28 02:07:59;;;;;;;0.68;0.60;;;;;;;16.88;100.00;100866.72;5054170;28;20102;-84
2023/09/28 02:10:25;;;;;;;1.23;0.82;;;;;;;16.61;100.00;100820.34;5031781;28;20045;-86
2023/09/28 02:12:50;;;;;;;0.73;0.50;;;;;;;16.90;100.00;100879.06;5050397;28;20075;-87
2023/09/28 02:15:16;;;;;;;2.28;1.38;;;;;;;16.92;100.00;100874.59;5048900;28;20049;-86
2023/09/28 02:17:43;;;;;;;0.95;0.93;;;;;;;17.14;100.00;100896.28;5050377;28;20033;-85
2023/09/28 02:20:10;;;;;;;1.98;1.88;;;;;;;16.40;100.00;100802.22;5049185;28;20051;-85
2023/09/28 02:22:43;;;;;;;5.30;0.85;;;;;;;16.87;100.00;100870.25;5049466;28;20076;-85
2023/09/28 02:25:10;;;;;;;;;;;;;;;17.03;100.00;100913.28;5050171;28;20128;-85
2023/09/28 02:27:36;;;;;;;1.15;1.05;;;;;;;17.03;100.00;100907.09;5049340;28;19921;-85
2023/09/28 02:30:04;;;;;;;0.32;0.32;;;;;;;16.34;100.00;100802.31;5052171;28;20040;-85
2023/09/28 02:32:29;;;;;;;0.60;0.52;;;;;;;16.31;100.00;100800.59;5069488;28;20491;-84
2023/09/28 02:34:55;;;;;;;1.40;0.65;;;;;;;16.32;100.00;100812.03;5067349;28;20040;-86
2023/09/28 02:37:20;;;;;;;0.45;0.43;;;;;;;16.28;100.00;100813.88;5031868;28;20151;-85
2023/09/28 02:39:46;;;;;;;0.60;0.60;;;;;;;16.70;100.00;100884.69;5050854;28;20037;-85
2023/09/28 02:42:11;;;;;;;1.50;1.02;;;;;;;16.82;100.00;100897.75;5049538;28;20763;-84
2023/09/28 02:44:37;;;;;;;0.85;0.52;;;;;;;16.44;100.00;100836.56;5050300;28;20542;-85
2023/09/28 02:47:05;;;;;;;0.95;0.95;;;;;;;16.91;100.00;100907.34;5049087;28;20094;-86
2023/09/28 02:49:34;;;;;;;0.88;0.50;;;;;;;16.38;100.00;100823.41;5033295;28;20049;-86
2023/09/28 02:52:00;;;;;;;1.35;1.25;;;;;;;16.47;100.00;100835.63;5049138;28;20684;-84
2023/09/28 02:54:26;;;;;;;1.00;0.90;;;;;;;16.24;100.00;100815.69;5048979;28;20049;-86
2023/09/28 02:56:53;;;;;;;1.13;1.02;;;;;;;16.36;100.00;100840.22;5066092;28;20078;-86
2023/09/28 02:59:22;;;;;;;1.10;1.00;;;;;;;16.19;100.00;100824.63;5050046;28;20052;-86
2023/09/28 03:01:48;;;;;;;1.08;0.98;;;;;;;16.75;100.00;100915.50;5053914;28;20071;-87
2023/09/28 03:04:15;;;;;;;0.85;0.50;;;;;;;16.16;100.00;100807.03;5029008;28;20038;-88
2023/09/28 03:06:40;;;;;;;1.63;1.52;;;;;;;16.03;100.00;100808.97;5035163;28;20401;-86
2023/09/28 03:09:08;;;;;;;1.98;1.25;;;;;;;15.90;100.00;100809.22;5048980;28;20037;-85
2023/09/28 03:11:35;;;;;;;1.63;0.80;;;;;;;16.20;100.00;100840.50;5049583;28;20802;-85
2023/09/28 03:14:02;;;;;;;1.55;1.27;;;;;;;15.99;100.00;100825.84;5034139;28;20052;-84
2023/09/28 03:16:27;;;;;;;1.15;1.05;;;;;;;16.38;100.00;100883.47;5057110;28;20045;-85
2023/09/28 03:18:53;;;;;;;5.68;2.33;;;;;;;16.17;100.00;100845.81;5050149;28;20048;-86
2023/09/28 03:21:19;;;;;;;0.20;0.20;;;;;;;16.02;100.00;100787.84;5055818;28;20040;-87
2023/09/28 03:23:45;;;;;;;0.98;0.90;;;;;;;16.58;100.00;100901.69;5069268;28;20024;-85
2023/09/28 03:26:11;;;;;;;1.33;1.05;;;;;;;16.67;100.00;100918.31;5068559;28;20064;-84
2023/09/28 03:28:37;;;;;;;1.00;0.85;;;;;;;16.60;100.00;100903.41;5049505;28;20049;-85
2023/09/28 03:31:03;;;;;;;1.73;1.63;;;;;;;16.53;100.00;100896.47;5068116;28;20045;-86
2023/09/28 03:33:28;;;;;;;1.27;1.08;;;;;;;16.46;100.00;100911.59;5048163;28;20045;-85
2023/09/28 03:35:55;;;;;;;0.77;0.70;;;;;;;16.58;100.00;100901.69;5048352;28;20500;-85
2023/09/28 03:38:20;;;;;;;1.60;0.80;;;;;;;16.11;100.00;100823.88;5047698;28;20045;-85
2023/09/28 03:40:46;;;;;;;0.60;0.60;;;;;;;16.42;100.00;100885.16;5047772;28;20045;-85
2023/09/28 03:43:11;;;;;;;1.10;1.00;;;;;;;16.16;100.00;100828.22;5047139;28;20045;-85
2023/09/28 03:45:37;;;;;;;0.75;0.55;;;;;;;16.05;100.00;100814.25;5029589;28;20045;-85
2023/09/28 03:48:02;;;;;;;1.08;0.95;;;;;;;15.79;100.00;100798.81;5047925;28;20028;-85
2023/09/28 03:50:28;;;;;;;0.98;0.93;;;;;;;16.59;100.00;100927.28;5062118;28;20465;-87
2023/09/28 03:52:53;;;;;;;0.68;0.60;;;;;;;16.51;100.00;100918.59;5067972;28;20555;-85
2023/09/28 03:55:23;;;;;;;2.75;1.77;;;;;;;16.38;100.00;100907.31;5067866;28;20049;-85
2023/09/28 03:57:50;;;;;;;1.05;0.98;;;;;;;16.38;100.00;100904.66;5067148;28;20408;-85
2023/09/28 04:00:17;;;;;;;1.00;0.80;;;;;;;16.65;100.00;100937.78;5039477;28;20028;-87
2023/09/28 04:02:50;;;;;;;1.55;1.42;;;;;;;15.77;100.00;100821.75;5048693;28;20040;-85
2023/09/28 04:05:16;;;;;;;;;;;;;;;16.42;100.00;100940.78;5029706;28;20037;-86
2023/09/28 04:07:41;;;;;;;2.75;2.15;;;;;;;16.32;100.00;100913.59;5047468;28;19930;-86
2023/09/28 04:10:08;;;;;;;1.45;1.27;;;;;;;15.57;100.00;100777.06;5047928;28;20049;-86
2023/09/28 04:12:34;;;;;;;0.70;0.70;;;;;;;16.41;100.00;100945.22;5047819;28;20048;-86
2023/09/28 04:14:59;;;;;;;1.38;0.82;;;;;;;16.44;100.00;100909.88;5047558;28;20040;-85
2023/09/28 04:17:25;;;;;;;1.55;1.05;;;;;;;16.31;100.00;100925.06;5030142;28;20033;-85
2023/09/28 04:19:50;;;;;;;1.58;1.48;;;;;;;15.73;100.00;100814.75;5047413;28;20126;-86
2023/09/28 04:22:19;;;;;;;1.92;1.08;;;;;;;16.06;100.00;100861.03;5030654;28;20028;-86
2023/09/28 04:24:44;;;;;;;1.05;0.73;;;;;;;16.29;100.00;100903.00;5067210;28;20036;-86
2023/09/28 04:27:11;;;;;;;0.55;0.55;;;;;;;16.49;100.00;100925.69;5069290;28;20074;-86
2023/09/28 04:29:37;;;;;;;1.05;1.00;;;;;;;15.54;100.00;100759.44;5034004;28;20049;-86
2023/09/28 04:32:02;;;;;;;0.43;0.43;;;;;;;16.52;100.00;100937.09;5031277;28;20730;-84
2023/09/28 04:34:29;;;;;;;2.47;1.13;;;;;;;16.71;100.00;100950.91;5051492;28;20465;-84
2023/09/28 04:36:55;;;;;;;2.35;1.95;;;;;;;16.00;100.00;100843.44;5051007;28;20037;-88
2023/09/28 04:39:23;;;;;;;1.17;0.70;;;;;;;16.25;100.00;100870.44;5048395;28;20346;-87
2023/09/28 04:41:49;;;;;;;2.42;2.22;;;;;;;16.64;100.00;100905.09;5047522;28;20029;-85
2023/09/28 04:44:15;;;;;;;1.90;1.25;;;;;;;16.87;100.00;100927.69;5012752;28;20048;-84
2023/09/28 04:46:40;;;;;;;0.47;0.47;;;;;;;15.77;100.00;100743.25;5037145;28;20054;-85
2023/09/28 04:49:05;;;;;;;1.77;1.52;;;;;;;16.41;100.00;100860.47;5052604;28;20040;-85
2023/09/28 04:51:31;;;;;;;0.85;0.85;;;;;;;16.50;100.00;100861.19;5044051;28;20691;-85
2023/09/28 04:53:56;;;;;;;0.40;0.30;;;;;;;16.77;100.00;100912.84;5047039;28;20396;-84
2023/09/28 04:56:22;;;;;;;1.02;0.80;;;;;;;16.95;100.00;100936.41;5050453;28;20052;-86
2023/09/28 04:58:48;;;;;;;2.05;1.67;;;;;;;16.43;100.00;100837.44;5066523;28;20534;-84
2023/09/28 05:01:15;;;;;;;1.23;1.02;;;;;;;16.87;100.00;100910.03;5066804;28;20086;-87
2023/09/28 05:03:41;;;;;;;1.00;0.90;;;;;;;16.70;100.00;100879.41;5066638;28;20046;-86
2023/09/28 05:06:06;;;;;;;2.97;1.30;;;;;;;16.70;100.00;100867.03;5066988;28;20147;-86
2023/09/28 05:08:31;;;;;;;1.38;1.27;;;;;;;16.99;100.00;100902.75;5049175;28;20029;-87
2023/09/28 05:10:57;;;;;;;2.08;1.70;;;;;;;17.38;100.00;100956.81;5053930;28;20119;-85
2023/09/28 05:13:29;;;;;;;0.95;0.68;;;;;;;16.99;99.35;100861.19;5047419;28;20408;-87
2023/09/28 05:15:55;;;;;;;1.53;1.37;;;;;;;17.54;97.79;100941.47;5028546;28;20053;-85
2023/09/28 05:18:20;;;;;;;2.58;2.38;;;;;;;17.64;95.42;100923.56;5046620;28;20064;-84
2023/09/28 05:20:46;;;;;;;1.70;1.60;;;;;;;17.73;95.63;100931.34;5063823;28;20070;-85
2023/09/28 05:23:11;;;;;;;0.40;0.40;;;;;;;17.40;93.78;100859.50;5048245;28;20056;-85
2023/09/28 05:25:37;;;;;;;0.98;0.90;;;;;;;17.97;92.14;100932.63;5050838;28;20060;-87
2023/09/28 05:28:03;;;;;;;7.00;5.25;;;;;;;17.61;91.65;100859.97;5050438;28;20044;-86
2023/09/28 05:30:29;;;;;;;0.93;0.93;;;;;;;18.25;90.23;100953.25;5049026;28;20120;-85
2023/09/28 05:32:55;;;;;;;0.68;0.57;;;;;;;18.34;89.48;100961.88;5058610;28;20426;-85
2023/09/28 05:35:22;;;;;;;0.40;0.30;;;;;;;18.61;86.67;100970.09;5043567;28;20044;-85
2023/09/28 05:37:49;;;;;;;2.95;0.60;;;;;;;18.13;84.41;100853.47;5057277;28;20128;-85
2023/09/28 05:40:15;;;;;;;5.00;1.20;;;;;;;18.88;83.56;100978.34;5052455;28;20167;-84
2023/09/28 05:42:42;;;;;;;1.35;1.13;;;;;;;18.45;81.16;100865.97;5070462;28;20665;-85
2023/09/28 05:45:09;;;;;;;1.08;0.98;;;;;;;18.90;80.35;100936.63;5069871;28;20060;-85
2023/09/28 05:47:35;;;;;;;3.80;0.98;;;;;;;18.70;77.61;100868.84;5071338;28;20040;-84
2023/09/28 05:50:05;;;;;;;1.42;1.15;;;;;;;18.85;76.97;100872.06;5036396;28;20048;-85
2023/09/28 05:52:31;;;;;;;1.80;1.30;;;;;;;19.39;75.64;100941.50;5059148;28;20041;-85
2023/09/28 05:54:56;;;;;;;1.25;1.15;;;;;;;19.33;75.08;100923.03;5056633;28;20041;-86
2023/09/28 05:57:22;;;;;;;3.50;2.78;;;;;;;19.88;73.26;100976.53;5074183;28;20066;-85
2023/09/28 05:59:51;;;;;;;2.75;2.60;;;;;;;20.03;72.25;100986.72;5074921;28;20488;-85
2023/09/28 06:02:18;;;;;;;2.50;1.13;;;;;;;19.96;72.17;100958.50;5069585;28;20109;-84
2023/09/28 06:04:44;;;;;;;2.70;1.60;;;;;;;19.56;70.99;100885.09;5069474;28;20052;-86
2023/09/28 06:07:10;;;;;;;0.73;0.63;;;;;;;20.04;70.78;100950.28;5056504;28;20060;-86
2023/09/28 06:09:39;;;;;;;0.70;0.60;;;;;;;19.58;69.64;100855.78;5049717;28;20725;-86
2023/09/28 06:12:05;;;;;;;2.60;1.25;;;;;;;20.38;68.43;100992.75;5051188;28;20108;-84
2023/09/28 06:14:31;;;;;;;2.47;2.28;;;;;;;20.21;67.82;100955.97;5052484;28;20036;-85
2023/09/28 06:16:58;;;;;;;1.77;1.35;;;;;;;19.86;66.67;100869.16;5069020;28;20075;-86
2023/09/28 06:19:24;;;;;;;1.45;1.35;;;;;;;20.04;66.49;100904.97;5051957;28;20048;-85
2023/09/28 06:21:49;;;;;;;0.30;0.30;;;;;;;19.89;67.15;100865.53;5052063;28;20037;-86
2023/09/28 06:24:15;;;;;;;0.98;0.98;;;;;;;20.58;67.05;100969.94;5049733;28;20863;-85
2023/09/28 06:26:40;;;;;;;2.95;1.75;;;;;;;19.92;66.21;100850.31;5048736;28;20033;-86
2023/09/28 06:29:06;;;;;;;1.55;1.13;;;;;;;20.76;64.64;100981.81;5049473;28;20049;-85
2023/09/28 06:31:32;;;;;;;1.73;0.95;;;;;;;20.24;64.05;100889.25;5031552;28;20052;-85
2023/09/28 06:33:57;;;;;;;3.45;1.40;;;;;;;20.75;63.24;100964.94;5047877;28;20047;-86
2023/09/28 06:36:25;;;;;;;0.65;0.45;;;;;;;20.78;63.30;100964.81;5049210;28;20076;-86
2023/09/28 06:38:51;;;;;;;1.00;0.95;;;;;;;20.28;62.61;100891.81;5050778;28;20465;-86
2023/09/28 06:41:17;;;;;;;2.13;1.58;;;;;;;20.22;62.18;100895.53;5049321;28;20048;-87
2023/09/28 06:43:43;;;;;;;1.13;1.02;;;;;;;20.90;61.82;100989.34;5049086;28;20051;-84
2023/09/28 06:46:08;;;;;;;2.97;1.48;;;;;;;20.26;62.26;100899.00;5064102;28;20075;-85
2023/09/28 06:48:34;;;;;;;0.77;0.75;;;;;;;20.91;62.17;101002.66;5063175;28;20056;-84
2023/09/28 06:51:00;;;;;;;1.48;1.02;;;;;;;20.38;61.80;100923.44;5046775;28;20100;-87
2023/09/28 06:53:26;;;;;;;0.90;0.60;;;;;;;20.42;61.69;100914.44;5049457;28;20044;-86
2023/09/28 06:55:53;;;;;;;1.70;1.38;;;;;;;20.31;60.77;100887.25;5048887;28;20053;-86
2023/09/28 06:58:19;;;;;;;3.95;1.45;;;;;;;21.05;61.01;101002.19;5051312;28;20062;-85
2023/09/28 07:00:47;;;;;;;0.95;0.73;;;;;;;20.99;60.67;100971.22;5068646;28;20133;-85
2023/09/28 07:03:14;;;;;;;2.60;1.73;;;;;;;21.17;60.42;100988.41;5058267;28;20033;-85
2023/09/28 07:05:40;;;;;;;1.80;1.05;;;;;;;20.55;59.44;100892.69;5049867;28;20040;-86
2023/09/28 07:08:06;;;;;;;3.67;1.92;;;;;;;21.12;60.42;100994.81;5030691;28;20127;-86
2023/09/28 07:10:37;;;;;;;1.77;1.58;;;;;;;20.57;59.60;100889.06;5017906;28;20265;-85
2023/09/28 07:13:05;;;;;;;1.60;1.48;;;;;;;21.23;59.35;100988.19;5047068;28;20147;-86
2023/09/28 07:15:34;;;;;;;1.23;0.43;;;;;;;20.69;59.52;100876.25;5048389;28;20037;-86
2023/09/28 07:18:00;;;;;;;1.10;0.75;;;;;;;21.00;59.55;100924.97;5047098;28;20037;-85
2023/09/28 07:20:27;;;;;;;1.13;0.55;;;;;;;21.59;58.91;101000.34;5030908;28;20103;-86
2023/09/28 07:22:53;;;;;;;1.30;0.95;;;;;;;21.67;58.26;101000.91;5067012;28;20056;-83
2023/09/28 07:25:19;;;;;;;1.98;1.45;;;;;;;21.70;57.98;100985.66;5069462;28;20059;-86
2023/09/28 07:27:47;;;;;;;1.13;0.95;;;;;;;21.23;56.56;100892.09;5068596;28;20032;-86
2023/09/28 07:30:14;;;;;;;0.85;0.75;;;;;;;21.39;56.54;100902.22;5066634;28;20036;-84
2023/09/28 07:32:40;;;;;;;4.78;2.30;;;;;;;22.04;56.10;101008.41;5048784;28;20044;-86
2023/09/28 07:35:09;;;;;;;2.17;1.67;;;;;;;22.04;54.92;100970.13;5047576;28;20048;-86
2023/09/28 07:37:35;;;;;;;1.48;1.38;;;;;;;22.43;51.76;101004.28;5030437;28;20049;-84
2023/09/28 07:40:01;;;;;;;1.65;0.75;;;;;;;22.45;51.04;100984.59;5049436;28;20037;-83
2023/09/28 07:42:27;;;;;;;2.10;1.90;;;;;;;22.52;50.81;100993.22;5047465;28;20049;-87
2023/09/28 07:44:53;;;;;;;1.05;0.95;;;;;;;22.47;50.24;100971.13;5052858;28;20032;-84
2023/09/28 07:47:19;;;;;;;1.23;1.13;;;;;;;22.32;50.09;100898.63;5049766;28;20051;-87
2023/09/28 07:49:47;;;;;;;3.22;1.58;;;;;;;22.33;49.38;100891.47;5064317;28;20051;-86
2023/09/28 07:52:13;;;;;;;0.47;0.45;;;;;;;23.15;48.11;100999.50;5049581;28;20209;-84
2023/09/28 07:54:39;;;;;;;1.85;1.35;;;;;;;22.89;47.51;100944.38;5047240;28;20037;-86
2023/09/28 07:57:05;;;;;;;0.65;0.63;;;;;;;22.59;47.42;100909.09;5056923;28;20044;-85
2023/09/28 07:59:34;;;;;;;2.72;1.90;;;;;;;23.07;47.07;100961.50;5046100;28;20056;-86
2023/09/28 08:02:09;;;;;;;1.02;1.02;;;;;;;22.74;46.23;100889.72;5031113;28;20067;-86
2023/09/28 08:04:36;;;;;;;0.85;0.85;;;;;;;22.94;45.68;100902.25;5027224;28;20092;-85
2023/09/28 08:07:01;;;;;;;0.80;0.75;;;;;;;22.95;45.43;100914.69;5010627;28;20119;-87
2023/09/28 08:09:28;;;;;;;2.25;1.30;;;;;;;23.28;46.07;100957.03;5049276;28;20445;-84
2023/09/28 08:11:55;;;;;;;6.75;0.95;;;;;;;22.92;45.57;100884.50;5067524;28;20070;-85
2023/09/28 08:14:21;;;;;;;1.38;1.27;;;;;;;23.18;45.00;100923.56;5048736;28;20073;-86
2023/09/28 08:16:48;;;;;;;4.53;1.35;;;;;;;23.21;44.48;100906.50;5032258;28;20044;-87
2023/09/28 08:19:14;;;;;;;0.93;0.90;;;;;;;23.71;44.35;100978.34;5027064;28;20423;-86
2023/09/28 08:21:43;;;;;;;1.98;1.75;;;;;;;23.67;44.20;100969.59;5027388;28;20041;-86
2023/09/28 08:24:10;;;;;;;0.30;0.30;;;;;;;23.75;43.91;100970.13;5035066;28;20026;-85
2023/09/28 08:26:36;;;;;;;1.63;1.52;;;;;;;23.35;43.93;100901.38;5056803;28;20033;-86
2023/09/28 08:29:03;;;;;;;1.13;1.02;;;;;;;23.85;43.35;100991.13;5036032;28;20042;-87
2023/09/28 08:31:30;;;;;;;6.57;1.60;;;;;;;23.52;43.63;100919.34;5026998;28;20049;-86
2023/09/28 08:34:03;;;;;;;1.42;1.33;;;;;;;23.90;43.84;100987.28;5026930;28;20041;-87
2023/09/28 08:36:32;;;;;;;0.77;0.77;;;;;;;24.08;43.20;100992.75;5019774;28;20042;-87
2023/09/28 08:38:58;;;;;;;4.97;1.85;;;;;;;23.96;42.62;100970.06;5027825;28;20438;-86
2023/09/28 08:41:40;;;;;;;1.60;1.05;;;;;;;23.55;42.09;100895.09;5026964;28;20060;-87
2023/09/28 08:44:07;;;;;;;0.35;0.30;;;;;;;24.15;42.48;100980.78;5026541;28;20061;-86
2023/09/28 08:46:38;;;;;;;2.45;2.10;;;;;;;24.02;42.75;100934.91;5044800;28;20075;-87
2023/09/28 08:49:06;;;;;;;0.65;0.65;;;;;;;24.32;42.84;100966.56;5042471;28;20037;-85
2023/09/28 08:51:32;;;;;;;1.20;1.10;;;;;;;24.36;42.43;100941.34;5027455;28;20048;-87
2023/09/28 08:54:04;;;;;;;2.40;2.20;;;;;;;23.77;42.48;100873.56;5046757;28;20052;-87
2023/09/28 08:56:33;;;;;;;5.55;3.13;;;;;;;24.32;42.59;100970.09;5058667;28;20066;-85
2023/09/28 08:58:59;;;;;;;1.35;0.63;;;;;;;23.74;41.14;100854.94;5060663;28;20526;-85
2023/09/28 09:01:28;;;;;;;3.05;0.95;;;;;;;24.32;41.02;100934.38;5045073;28;20413;-87
2023/09/28 09:03:53;;;;;;;1.35;0.35;;;;;;;24.43;41.12;100935.59;5053152;28;20063;-85
2023/09/28 09:06:20;;;;;;;0.70;0.65;;;;;;;23.94;41.48;100864.72;5066922;28;20060;-86
2023/09/28 09:08:49;;;;;;;0.88;0.85;;;;;;;24.48;41.07;100956.00;5065573;28;20472;-85
2023/09/28 09:11:18;;;;;;;2.45;1.27;;;;;;;24.60;40.55;100942.81;5048012;28;20068;-86
2023/09/28 09:13:51;;;;;;;0.57;0.57;;;;;;;24.64;40.49;100938.19;5046752;28;20172;-88
2023/09/28 09:16:17;;;;;;;1.38;0.90;;;;;;;24.93;40.51;100960.84;5047365;28;20056;-87
2023/09/28 09:18:43;;;;;;;0.20;0.20;;;;;;;25.09;39.79;100976.19;5045664;28;20053;-81
2023/09/28 09:21:10;;;;;;;1.27;0.63;;;;;;;24.61;39.69;100876.63;5047389;28;20021;-88
2023/09/28 09:23:36;;;;;;;1.90;1.33;;;;;;;24.96;39.35;100949.06;5048357;28;20064;-87
2023/09/28 09:26:02;;;;;;;0.63;0.63;;;;;;;24.92;39.88;100905.44;5028578;28;20045;-85
2023/09/28 09:28:33;;;;;;;0.65;0.52;;;;;;;25.11;38.86;100963.56;5047276;28;20047;-86
2023/09/28 09:30:59;;;;;;;0.20;0.20;;;;;;;24.95;39.03;100907.94;5032793;28;20046;-88
2023/09/28 09:33:26;;;;;;;3.25;1.58;;;;;;;25.24;38.21;100964.69;5045051;28;20052;-86
2023/09/28 09:35:52;;;;;;;0.60;0.60;;;;;;;24.81;38.26;100887.19;5046549;28;20041;-85
2023/09/28 09:38:28;;;;;;;0.80;0.75;;;;;;;25.32;37.72;100954.41;5029709;28;20075;-86
2023/09/28 09:40:59;;;;;;;4.00;1.15;;;;;;;25.11;37.72;100953.66;5047931;28;20041;-86
2023/09/28 09:43:24;;;;;;;0.32;0.32;;;;;;;25.32;37.67;100972.34;5046948;28;20115;-88
2023/09/28 09:45:50;;;;;;;0.30;0.30;;;;;;;25.30;37.55;100953.59;5060526;28;20048;-85
2023/09/28 09:48:16;;;;;;;0.40;0.40;;;;;;;25.33;37.63;100926.56;5066288;28;20028;-87
2023/09/28 09:50:43;;;;;;;0.10;0.10;;;;;;;24.81;37.26;100895.22;5031835;28;20867;-86
2023/09/28 09:53:09;;;;;;;0.52;0.52;;;;;;;24.86;37.70;100868.16;5050354;28;20386;-88
2023/09/28 09:55:39;;;;;;;0.40;0.30;;;;;;;25.31;37.95;100927.59;5053023;28;20052;-88
2023/09/28 09:58:06;;;;;;;0.63;0.63;;;;;;;25.32;37.82;100924.84;5064213;28;20492;-87
2023/09/28 10:00:33;;;;;;;0.77;0.77;;;;;;;25.14;38.29;100861.31;5067867;28;20036;-86
2023/09/28 10:03:03;;;;;;;0.10;0.10;;;;;;;25.58;37.65;100957.50;5066198;28;20041;-86
2023/09/28 10:05:29;;;;;;;0.75;0.73;;;;;;;25.09;38.14;100875.00;5060421;28;20036;-88
2023/09/28 10:07:56;;;;;;;0.82;0.82;;;;;;;25.04;38.42;100851.06;5046150;28;20046;-86
2023/09/28 10:10:23;;;;;;;0.82;0.82;;;;;;;25.55;38.08;100930.81;5048086;28;20183;-86
2023/09/28 10:12:49;;;;;;;0.63;0.60;;;;;;;25.73;38.40;100943.25;5049158;28;20048;-88
2023/09/28 10:15:16;;;;;;;0.75;0.75;;;;;;;25.48;38.04;100869.31;5049699;28;20385;-88
2023/09/28 10:17:43;;;;;;;0.20;0.20;;;;;;;25.28;38.34;100845.34;5050286;28;20166;-86
2023/09/28 10:20:09;;;;;;;1.00;0.73;;;;;;;25.61;38.55;100904.44;5049018;28;20041;-86
2023/09/28 10:22:50;;;;;;;0.40;0.35;;;;;;;25.72;37.86;100916.44;5049527;28;20072;-86
2023/09/28 10:25:16;;;;;;;0.28;0.28;;;;;;;25.96;37.11;100935.75;5048698;28;20041;-86
2023/09/28 10:27:45;;;;;;;1.00;0.80;;;;;;;25.93;37.03;100931.41;5049290;28;20045;-86
2023/09/28 10:30:21;;;;;;;0.10;0.10;;;;;;;25.66;37.00;100875.50;5049492;28;20086;-87
2023/09/28 10:32:50;;;;;;;1.15;0.88;;;;;;;25.73;37.36;100902.91;5049048;28;20055;-85
2023/09/28 10:35:30;;;;;;;0.30;0.30;;;;;;;25.83;37.19;100876.38;5048827;28;20044;-86
2023/09/28 10:38:17;;;;;;;0.45;0.38;;;;;;;26.13;36.93;100940.16;5030286;28;20049;-87
2023/09/28 10:41:03;;;;;;;0.25;0.25;;;;;;;26.20;36.28;100934.38;5049357;28;20055;-85
2023/09/28 10:43:35;;;;;;;0.32;0.20;;;;;;;26.40;36.12;100924.28;5024507;28;20384;-85
2023/09/28 10:46:05;;;;;;;0.20;0.20;;;;;;;26.42;36.66;100920.53;5064274;28;20037;-87
2023/09/28 10:48:44;;;;;;;0.75;0.75;;;;;;;26.20;36.74;100917.34;5058981;28;20060;-86
2023/09/28 10:51:15;;;;;;;0.25;0.25;;;;;;;25.93;36.86;100861.50;5049789;28;20033;-85
2023/09/28 10:53:41;;;;;;;0.47;0.40;;;;;;;25.57;36.84;100833.00;5049798;28;20477;-85
2023/09/28 10:56:08;;;;;;;0.20;0.20;;;;;;;25.74;37.19;100815.94;5051340;28;20136;-87
2023/09/28 10:58:37;;;;;;;1.15;1.05;;;;;;;25.86;36.77;100801.81;5075890;28;20056;-86
2023/09/28 11:01:07;;;;;;;1.00;0.70;;;;;;;26.36;37.10;100885.91;5075560;28;20040;-85
2023/09/28 11:03:34;;;;;;;0.40;0.30;;;;;;;25.76;36.89;100807.78;5039271;28;20045;-87
2023/09/28 11:06:02;;;;;;;0.30;0.30;;;;;;;26.06;36.70;100862.53;5054077;28;20029;-86
2023/09/28 11:08:30;;;;;;;1.45;1.33;;;;;;;25.77;36.77;100839.06;5048405;28;20025;-89
2023/09/28 11:10:58;;;;;;;0.47;0.43;;;;;;;26.07;36.50;100880.38;5031816;28;20192;-87
2023/09/28 11:13:26;;;;;;;0.20;0.20;;;;;;;26.26;36.80;100920.53;5049601;28;20551;-86
2023/09/28 11:15:53;;;;;;;0.15;0.15;;;;;;;26.30;36.02;100868.28;5050525;28;20037;-88
2023/09/28 11:18:19;;;;;;;0.85;0.55;;;;;;;26.22;35.38;100892.09;5032443;28;20049;-85
2023/09/28 11:20:45;;;;;;;0.90;0.52;;;;;;;26.00;35.53;100819.84;5050276;28;20044;-88
2023/09/28 11:23:12;;;;;;;0.47;0.47;;;;;;;26.74;35.55;100901.66;5049209;28;20045;-87
2023/09/28 11:25:42;;;;;;;0.75;0.75;;;;;;;26.44;35.68;100835.19;5050386;28;20045;-86